Time;durP1;ratioP1;P1;durP2;ratioP2;P2;SDS_P1;SDS_P2;PMS_P1;PMS_P2;Temp;Humidity;BMP_temperature;BMP_pressure;BME280_temperature;BME280_humidity;BME280_pressure;Samples;Min_cycle;Max_cycle;Signal;HPM_P1;HPM_P2
2023/12/10 14:48:30;;;;;;;1.63;1.52;;;;;;;-11.53;86.35;100254.69;4798377;23;10001352;-78
2023/12/10 14:50:59;;;;;;;1.70;1.60;;;;;;;-11.48;86.55;100263.13;4946685;28;21210;-77
2023/12/10 14:53:34;;;;;;;1.50;1.40;;;;;;;-11.49;86.38;100258.84;4951399;28;20130;-78
2023/12/10 14:56:25;;;;;;;1.50;1.40;;;;;;;-11.46;86.48;100244.81;4966765;28;20148;-77
2023/12/10 14:59:06;;;;;;;1.55;1.45;;;;;;;-11.42;86.86;100252.41;4937846;28;20134;-78
2023/12/10 15:01:33;;;;;;;1.70;1.60;;;;;;;-11.44;86.82;100243.81;4959223;28;20141;-79
2023/12/10 15:04:01;;;;;;;1.80;1.70;;;;;;;-11.44;86.87;100232.53;4988958;28;20527;-77
2023/12/10 15:06:29;;;;;;;1.40;1.30;;;;;;;-11.43;86.99;100229.03;4961829;28;20527;-78
2023/12/10 15:08:57;;;;;;;1.80;1.70;;;;;;;-11.43;86.94;100240.28;4975149;28;20421;-77
2023/12/10 15:11:25;;;;;;;1.42;1.33;;;;;;;-11.45;87.06;100246.50;4970861;28;20054;-78
2023/12/10 15:13:53;;;;;;;1.60;1.50;;;;;;;-11.42;87.09;100247.19;4987755;28;20082;-78
2023/12/10 15:16:23;;;;;;;1.50;1.40;;;;;;;-11.47;86.98;100238.72;4970095;28;20074;-78
2023/12/10 15:18:50;;;;;;;1.60;1.50;;;;;;;-11.45;87.13;100257.75;4925261;28;20448;-78
2023/12/10 15:21:21;;;;;;;1.50;1.40;;;;;;;-11.52;87.05;100264.16;4964086;28;20050;-77
2023/12/10 15:23:54;;;;;;;1.70;1.60;;;;;;;-11.45;87.20;100267.34;4970810;28;20050;-78
2023/12/10 15:26:22;;;;;;;1.45;1.35;;;;;;;-11.46;87.12;100245.66;4955752;28;20050;-79
2023/12/10 15:28:53;;;;;;;1.40;1.30;;;;;;;-11.41;87.41;100259.31;4988372;28;20149;-79
2023/12/10 15:31:23;;;;;;;1.40;1.30;;;;;;;-11.45;87.40;100267.34;4945054;28;20058;-78
2023/12/10 15:33:51;;;;;;;1.50;1.40;;;;;;;-11.43;87.39;100271.56;4967180;28;20046;-77
2023/12/10 15:36:21;;;;;;;1.50;1.40;;;;;;;-11.32;87.48;100273.63;4988627;28;20146;-78
2023/12/10 15:38:52;;;;;;;1.40;1.30;;;;;;;-11.31;87.59;100272.72;4984691;28;20047;-79
2023/12/10 15:41:23;;;;;;;1.60;1.50;;;;;;;-11.24;87.36;100281.94;4982397;28;20125;-77
2023/12/10 15:43:54;;;;;;;1.90;1.80;;;;;;;-11.23;87.21;100283.63;4982095;28;20054;-78
2023/12/10 15:46:21;;;;;;;1.42;1.33;;;;;;;-11.27;87.12;100271.66;4979956;28;20585;-78
2023/12/10 15:48:52;;;;;;;1.50;1.40;;;;;;;-11.27;86.96;100281.22;4957996;28;20138;-78
2023/12/10 15:51:20;;;;;;;1.40;1.30;;;;;;;-11.24;87.16;100281.06;4983619;28;20050;-78
2023/12/10 15:53:47;;;;;;;1.63;1.52;;;;;;;-11.21;87.16;100280.94;4963376;28;20076;-78
2023/12/10 15:56:15;;;;;;;1.60;1.50;;;;;;;-11.21;87.23;100273.13;4993663;28;20065;-78
2023/12/10 15:58:42;;;;;;;1.50;1.40;;;;;;;-11.24;87.44;100270.66;5006743;28;20098;-79
2023/12/10 16:01:12;;;;;;;1.50;1.40;;;;;;;-11.19;87.31;100268.66;5006752;28;20053;-78
2023/12/10 16:03:43;;;;;;;1.67;1.58;;;;;;;-11.16;87.27;100265.94;4981223;28;20051;-81
2023/12/10 16:06:12;;;;;;;1.60;1.50;;;;;;;-11.21;87.18;100271.38;4979168;28;20050;-77
2023/12/10 16:08:42;;;;;;;1.45;1.35;;;;;;;-11.23;87.25;100273.19;4952211;28;20062;-78
2023/12/10 16:11:10;;;;;;;1.48;1.38;;;;;;;-11.23;87.10;100275.81;4985145;28;20054;-79
2023/12/10 16:13:45;;;;;;;1.50;1.40;;;;;;;-11.26;87.01;100280.34;4974229;28;20051;-77
2023/12/10 16:16:16;;;;;;;1.52;1.42;;;;;;;-11.32;86.81;100272.78;4984673;28;20096;-79
2023/12/10 16:18:43;;;;;;;1.60;1.50;;;;;;;-11.30;87.23;100281.38;4968072;28;20042;-79
2023/12/10 16:21:13;;;;;;;1.42;1.33;;;;;;;-11.33;87.15;100277.16;4964821;28;20112;-78
2023/12/10 16:23:42;;;;;;;1.50;1.40;;;;;;;-11.32;87.33;100273.63;4978436;28;20053;-79
2023/12/10 16:26:10;;;;;;;1.70;1.60;;;;;;;-11.26;87.55;100273.34;4980517;28;20105;-79
2023/12/10 16:28:37;;;;;;;1.60;1.50;;;;;;;-11.17;87.48;100274.66;4968545;28;20108;-79
2023/12/10 16:31:07;;;;;;;1.63;1.52;;;;;;;-11.18;87.48;100267.75;4952008;28;20050;-79
2023/12/10 16:33:37;;;;;;;1.60;1.50;;;;;;;-11.13;87.50;100278.81;4977471;28;20050;-78
2023/12/10 16:36:05;;;;;;;1.55;1.45;;;;;;;-11.08;87.50;100289.84;4980311;28;20535;-79
2023/12/10 16:38:32;;;;;;;1.50;1.40;;;;;;;-11.10;87.32;100278.66;4977962;28;20631;-79
2023/12/10 16:41:00;;;;;;;1.40;1.30;;;;;;;-11.09;87.30;100285.53;4977380;28;20043;-81
2023/12/10 16:43:28;;;;;;;1.63;1.52;;;;;;;-11.07;87.38;100280.25;4981771;28;20061;-79
2023/12/10 16:45:57;;;;;;;1.20;1.17;;;;;;;-10.99;87.42;100284.16;4978312;28;20058;-81
2023/12/10 16:48:26;;;;;;;1.60;1.50;;;;;;;-10.98;87.48;100282.41;4953490;28;20058;-80
2023/12/10 16:50:54;;;;;;;1.50;1.40;;;;;;;-10.99;87.35;100285.94;4978717;28;20063;-78
2023/12/10 16:53:22;;;;;;;1.40;1.30;;;;;;;-11.02;87.37;100270.44;4980118;28;20050;-79
2023/12/10 16:55:50;;;;;;;1.50;1.40;;;;;;;-11.00;87.48;100279.03;4987684;23;20070;-83
2023/12/10 16:58:23;;;;;;;1.50;1.40;;;;;;;-11.15;87.35;100271.03;4951527;28;20071;-79
2023/12/10 17:00:51;;;;;;;1.50;1.40;;;;;;;-11.03;87.26;100285.25;4967935;28;20051;-79
2023/12/10 17:03:21;;;;;;;1.70;1.60;;;;;;;-11.06;87.26;100282.81;4963293;28;20084;-78
2023/12/10 17:05:50;;;;;;;1.38;1.27;;;;;;;-11.06;87.15;100288.00;4972710;28;20082;-79
2023/12/10 17:08:18;;;;;;;1.42;1.33;;;;;;;-11.07;87.27;100278.50;4961330;28;20406;-79
2023/12/10 17:10:45;;;;;;;1.15;1.15;;;;;;;-11.03;87.04;100282.66;4962539;28;20055;-80
2023/12/10 17:13:12;;;;;;;1.48;1.38;;;;;;;-11.08;86.98;100283.81;4968039;28;20058;-79
2023/12/10 17:15:40;;;;;;;1.70;1.60;;;;;;;-11.14;87.18;100282.31;4969284;28;20051;-79
2023/12/10 17:18:07;;;;;;;1.63;1.52;;;;;;;-11.17;87.21;100267.66;4969805;28;20101;-81
2023/12/10 17:20:34;;;;;;;1.60;1.50;;;;;;;-11.10;87.32;100277.81;4976955;28;20061;-79
2023/12/10 17:23:02;;;;;;;1.20;1.20;;;;;;;-11.05;87.40;100275.81;4991484;28;20456;-80
2023/12/10 17:25:31;;;;;;;1.58;1.48;;;;;;;-11.10;87.27;100273.44;4970838;28;20073;-80
2023/12/10 17:27:58;;;;;;;1.45;1.35;;;;;;;-11.25;87.45;100254.19;4984414;28;20050;-80
2023/12/10 17:30:25;;;;;;;1.90;1.80;;;;;;;-11.05;87.25;100278.44;4968585;28;20430;-79
2023/12/10 17:32:55;;;;;;;1.40;1.30;;;;;;;-11.09;87.02;100274.28;4968780;28;20133;-79
2023/12/10 17:35:23;;;;;;;1.55;1.45;;;;;;;-11.07;87.08;100273.28;4981354;28;20050;-79
2023/12/10 17:37:51;;;;;;;1.42;1.33;;;;;;;-10.99;87.04;100281.56;4979614;28;20062;-79
2023/12/10 17:40:18;;;;;;;1.60;1.50;;;;;;;-10.99;86.87;100281.56;4965579;28;20053;-79
2023/12/10 17:42:46;;;;;;;1.63;1.52;;;;;;;-10.99;86.73;100271.13;4961152;28;20599;-81
2023/12/10 17:45:13;;;;;;;1.38;1.27;;;;;;;-10.93;87.01;100272.59;4963024;28;20125;-79
2023/12/10 17:47:41;;;;;;;1.50;1.40;;;;;;;-10.91;86.35;100276.81;4961591;28;20109;-81
2023/12/10 17:50:11;;;;;;;1.60;1.50;;;;;;;-10.94;86.31;100271.75;4969361;28;20142;-79
2023/12/10 17:52:39;;;;;;;1.60;1.50;;;;;;;-10.97;86.26;100277.09;4979612;28;20917;-81
2023/12/10 17:55:06;;;;;;;1.50;1.40;;;;;;;-11.06;85.92;100271.50;4968436;28;20121;-80
2023/12/10 17:57:34;;;;;;;1.40;1.30;;;;;;;-11.08;86.42;100269.00;4978930;28;20058;-79
2023/12/10 18:00:02;;;;;;;1.10;1.10;;;;;;;-11.03;86.31;100272.22;4977131;28;20058;-80
2023/12/10 18:02:32;;;;;;;1.60;1.50;;;;;;;-10.99;86.33;100280.72;4970035;28;20908;-81
2023/12/10 18:04:59;;;;;;;1.55;1.45;;;;;;;-11.02;86.09;100286.09;4957241;28;20440;-80
2023/12/10 18:07:26;;;;;;;1.55;1.45;;;;;;;-11.10;86.10;100270.81;4969913;28;20105;-80
2023/12/10 18:09:54;;;;;;;1.52;1.42;;;;;;;-11.10;86.26;100273.44;4975106;28;20061;-79
2023/12/10 18:12:23;;;;;;;1.52;1.42;;;;;;;-11.07;86.12;100273.28;4974450;28;20054;-80
2023/12/10 18:14:50;;;;;;;1.80;1.70;;;;;;;-11.14;86.16;100266.66;4979993;28;20559;-81
2023/12/10 18:17:18;;;;;;;1.60;1.50;;;;;;;-11.14;86.36;100270.16;4980057;28;20144;-80
2023/12/10 18:19:45;;;;;;;1.50;1.40;;;;;;;-11.09;86.30;100274.28;4977338;28;20054;-83
2023/12/10 18:22:13;;;;;;;1.73;1.63;;;;;;;-11.10;86.14;100273.44;4978873;28;20105;-82
2023/12/10 18:24:40;;;;;;;1.50;1.40;;;;;;;-11.06;86.61;100272.38;4973547;28;20589;-82
2023/12/10 18:27:08;;;;;;;1.38;1.27;;;;;;;-11.12;86.46;100262.22;4973025;28;20057;-83
2023/12/10 18:29:35;;;;;;;1.38;1.27;;;;;;;-11.02;86.25;100276.50;4971451;28;20051;-82
2023/12/10 18:32:06;;;;;;;1.42;1.33;;;;;;;-11.08;86.35;100270.75;4978578;28;20137;-80
2023/12/10 18:34:41;;;;;;;1.63;1.52;;;;;;;-11.11;86.30;100266.53;4975740;28;20163;-80
2023/12/10 18:37:09;;;;;;;1.45;1.35;;;;;;;-11.16;86.19;100260.72;4981720;28;20062;-81
2023/12/10 18:39:36;;;;;;;1.60;1.50;;;;;;;-11.19;86.39;100250.41;5019374;28;20061;-81
2023/12/10 18:42:04;;;;;;;1.65;1.55;;;;;;;-11.01;86.43;100266.91;5017895;28;20515;-82
2023/12/10 18:44:36;;;;;;;1.40;1.30;;;;;;;-11.04;86.33;100262.69;5000688;28;20108;-82
2023/12/10 18:47:04;;;;;;;1.25;1.23;;;;;;;-11.12;86.55;100270.06;4984503;28;20046;-82
2023/12/10 18:49:31;;;;;;;1.35;1.25;;;;;;;-11.17;86.78;100256.41;4980048;28;20089;-81
2023/12/10 18:51:58;;;;;;;1.52;1.42;;;;;;;-11.10;86.72;100257.78;4998115;28;20058;-83
2023/12/10 18:54:28;;;;;;;1.63;1.52;;;;;;;-11.07;86.37;100268.06;4996658;28;20050;-83
2023/12/10 18:56:57;;;;;;;1.55;1.45;;;;;;;-11.05;86.57;100271.44;4995685;28;20057;-82
2023/12/10 18:59:25;;;;;;;1.50;1.40;;;;;;;-11.05;86.82;100270.59;4998582;28;20128;-82
2023/12/10 19:01:52;;;;;;;1.60;1.50;;;;;;;-11.02;87.09;100271.28;5005686;28;20507;-83
2023/12/10 19:04:19;;;;;;;1.52;1.42;;;;;;;-10.98;86.68;100241.53;5003186;28;20120;-83
2023/12/10 19:06:47;;;;;;;1.70;1.60;;;;;;;-10.97;86.64;100229.34;4995827;28;20054;-82
2023/12/10 19:09:14;;;;;;;1.50;1.40;;;;;;;-10.99;86.51;100255.47;5000408;28;20046;-82
2023/12/10 19:11:41;;;;;;;1.67;1.58;;;;;;;-11.05;86.67;100253.19;4998980;28;20050;-81
2023/12/10 19:14:11;;;;;;;1.60;1.50;;;;;;;-10.99;86.80;100265.91;5000073;28;20046;-82
2023/12/10 19:16:39;;;;;;;1.40;1.30;;;;;;;-10.96;86.76;100264.91;4978885;28;20070;-81
2023/12/10 19:19:06;;;;;;;1.58;1.48;;;;;;;-10.92;86.85;100262.06;4984595;28;20058;-81
2023/12/10 19:21:37;;;;;;;1.60;1.50;;;;;;;-10.86;86.85;100270.50;4982760;28;20044;-81
2023/12/10 19:24:05;;;;;;;1.60;1.50;;;;;;;-11.01;86.44;100265.16;4968607;28;20461;-85
2023/12/10 19:26:37;;;;;;;1.48;1.38;;;;;;;-11.01;86.76;100266.91;4966446;28;20143;-81
2023/12/10 19:29:04;;;;;;;1.42;1.33;;;;;;;-11.08;86.89;100266.38;4965473;28;20058;-82
2023/12/10 19:31:31;;;;;;;1.60;1.50;;;;;;;-11.00;86.71;100273.81;4972650;28;20157;-81
2023/12/10 19:33:58;;;;;;;1.42;1.33;;;;;;;-10.99;86.66;100271.13;4972358;28;20524;-82
2023/12/10 19:36:27;;;;;;;1.40;1.30;;;;;;;-10.96;86.60;100276.22;4970962;28;20050;-85
2023/12/10 19:38:55;;;;;;;1.52;1.42;;;;;;;-10.97;86.58;100268.44;4975605;28;20077;-82
2023/12/10 19:41:22;;;;;;;1.75;1.65;;;;;;;-10.93;86.61;100280.44;4981922;28;20058;-82
2023/12/10 19:43:53;;;;;;;1.50;1.40;;;;;;;-10.96;86.80;100281.41;4982121;28;20413;-82
2023/12/10 19:46:20;;;;;;;1.50;1.40;;;;;;;-10.89;87.03;100281.09;4975879;28;20051;-82
2023/12/10 19:48:48;;;;;;;1.70;1.60;;;;;;;-10.93;86.85;100278.66;4970392;28;20474;-81
2023/12/10 19:51:15;;;;;;;1.65;1.55;;;;;;;-10.93;87.00;100289.09;4964775;28;20093;-81
2023/12/10 19:53:59;;;;;;;1.58;1.48;;;;;;;-10.95;86.96;100290.91;4954014;28;20657;-83
2023/12/10 19:56:26;;;;;;;1.40;1.30;;;;;;;-11.03;86.74;100268.78;4981995;28;20331;-81
2023/12/10 19:58:54;;;;;;;1.50;1.40;;;;;;;-10.96;86.99;100273.59;4977229;28;20042;-80
2023/12/10 20:01:24;;;;;;;1.60;1.50;;;;;;;-11.00;86.89;100264.22;4980641;28;20104;-81
2023/12/10 20:03:52;;;;;;;1.45;1.35;;;;;;;-11.00;86.93;100252.97;4976699;28;20510;-80
2023/12/10 20:06:25;;;;;;;1.40;1.30;;;;;;;-11.08;86.94;100252.50;4989136;28;20050;-81
2023/12/10 20:08:54;;;;;;;1.70;1.60;;;;;;;-11.02;87.31;100250.41;4979387;28;20058;-81
2023/12/10 20:11:41;;;;;;;1.70;1.60;;;;;;;-10.90;87.63;100246.38;4998040;28;20085;-81
2023/12/10 20:14:11;;;;;;;1.60;1.50;;;;;;;-10.86;87.55;100244.44;4974469;28;20567;-80
2023/12/10 20:16:41;;;;;;;1.42;1.33;;;;;;;-10.87;87.53;100251.41;4973921;28;20053;-81
2023/12/10 20:19:08;;;;;;;1.17;1.17;;;;;;;-10.93;87.30;100251.75;4978734;28;20059;-81
2023/12/10 20:21:36;;;;;;;1.50;1.40;;;;;;;-10.95;87.46;100256.19;4970523;28;20086;-80
2023/12/10 20:24:03;;;;;;;1.50;1.40;;;;;;;-10.92;87.71;100256.84;4953031;28;20073;-82
2023/12/10 20:26:44;;;;;;;1.60;1.50;;;;;;;-10.88;87.93;100260.19;4953072;28;20452;-81
2023/12/10 20:29:24;;;;;;;1.50;1.40;;;;;;;-10.86;87.92;100260.94;4967338;28;20046;-81
2023/12/10 20:31:51;;;;;;;1.20;1.20;;;;;;;-10.85;87.69;100264.38;4971599;28;20121;-80
2023/12/10 20:34:19;;;;;;;1.08;1.08;;;;;;;-10.78;87.61;100277.03;4972316;28;20508;-81
2023/12/10 20:36:58;;;;;;;1.40;1.30;;;;;;;-10.83;87.20;100286.03;4972013;28;20093;-81
2023/12/10 20:39:29;;;;;;;1.50;1.40;;;;;;;-10.89;87.72;100270.66;4969621;28;20078;-79
2023/12/10 20:41:56;;;;;;;1.60;1.50;;;;;;;-10.85;87.72;100267.00;4978251;28;20074;-81
2023/12/10 20:44:23;;;;;;;1.50;1.40;;;;;;;-10.86;87.73;100260.06;4974863;28;20509;-82
2023/12/10 20:46:50;;;;;;;1.42;1.33;;;;;;;-10.89;87.46;100255.88;4980409;28;20055;-82
2023/12/10 20:49:20;;;;;;;1.40;1.30;;;;;;;-10.94;87.33;100239.59;4981439;28;20079;-80
2023/12/10 20:52:10;;;;;;;1.50;1.40;;;;;;;-10.92;87.32;100236.00;4980526;28;20429;-78
2023/12/10 20:54:40;;;;;;;1.40;1.30;;;;;;;-10.86;87.56;100236.59;4962103;28;20051;-79
2023/12/10 20:57:08;;;;;;;1.40;1.30;;;;;;;-10.87;87.42;100227.09;4943650;28;20082;-79
2023/12/10 20:59:35;;;;;;;1.48;1.38;;;;;;;-10.85;87.42;100238.31;4959217;28;20047;-79
2023/12/10 21:02:03;;;;;;;1.67;1.58;;;;;;;-10.88;87.52;100228.88;4966810;28;20054;-79
2023/12/10 21:04:31;;;;;;;1.50;1.40;;;;;;;-10.88;87.43;100225.44;4962023;28;20055;-79
2023/12/10 21:07:04;;;;;;;1.23;1.20;;;;;;;-10.91;87.24;100224.66;4965535;28;20608;-79
2023/12/10 21:09:31;;;;;;;1.60;1.50;;;;;;;-10.93;87.30;100223.06;4965056;28;20066;-79
2023/12/10 21:11:58;;;;;;;1.50;1.40;;;;;;;-10.92;87.67;100224.72;4982976;28;20051;-79
2023/12/10 21:14:26;;;;;;;1.60;1.50;;;;;;;-10.90;87.62;100217.69;4974481;28;20059;-79
2023/12/10 21:16:53;;;;;;;1.15;1.15;;;;;;;-10.81;87.77;100224.16;4963861;28;20058;-79
2023/12/10 21:19:25;;;;;;;1.40;1.30;;;;;;;-10.83;88.01;100218.22;4973059;28;20046;-79
2023/12/10 21:21:55;;;;;;;1.50;1.40;;;;;;;-10.74;87.76;100230.75;4974082;28;20137;-79
2023/12/10 21:24:23;;;;;;;1.58;1.48;;;;;;;-10.82;87.73;100225.94;4980377;28;20058;-78
2023/12/10 21:26:50;;;;;;;1.30;1.20;;;;;;;-10.79;87.75;100231.00;4981454;28;20567;-79
2023/12/10 21:29:17;;;;;;;1.58;1.48;;;;;;;-10.78;87.76;100226.66;4977532;28;20563;-78
2023/12/10 21:31:45;;;;;;;1.45;1.35;;;;;;;-10.83;87.87;100218.22;4977467;28;20054;-80
2023/12/10 21:34:12;;;;;;;1.45;1.35;;;;;;;-10.83;87.82;100219.06;4983311;28;20137;-79
2023/12/10 21:36:40;;;;;;;1.40;1.30;;;;;;;-10.75;87.80;100221.25;4978278;28;20050;-80
2023/12/10 21:39:07;;;;;;;1.60;1.50;;;;;;;-10.78;87.94;100227.47;4973911;28;20058;-80
2023/12/10 21:41:34;;;;;;;1.50;1.40;;;;;;;-10.79;88.09;100231.00;4976867;28;20054;-81
2023/12/10 21:44:02;;;;;;;1.60;1.50;;;;;;;-10.81;88.29;100221.56;4977510;28;20062;-79
2023/12/10 21:46:35;;;;;;;1.17;1.17;;;;;;;-10.79;88.17;100236.22;4987077;28;20054;-79
2023/12/10 21:49:02;;;;;;;1.05;1.05;;;;;;;-10.74;88.08;100233.38;4965450;28;20583;-79
2023/12/10 21:51:32;;;;;;;1.50;1.40;;;;;;;-10.76;87.97;100230.88;4965860;28;20058;-79
2023/12/10 21:54:05;;;;;;;1.60;1.50;;;;;;;-10.78;87.90;100242.28;4973853;28;20098;-78
2023/12/10 21:56:33;;;;;;;1.42;1.33;;;;;;;-10.73;87.90;100242.91;4962896;28;20051;-79
2023/12/10 21:59:00;;;;;;;1.50;1.40;;;;;;;-10.84;87.50;100232.16;4961890;28;20055;-79
2023/12/10 22:01:31;;;;;;;1.40;1.30;;;;;;;-10.85;87.75;100238.31;4958588;28;20501;-79
2023/12/10 22:03:58;;;;;;;1.55;1.45;;;;;;;-10.84;87.91;100242.59;4980128;28;20509;-80
2023/12/10 22:06:26;;;;;;;1.55;1.45;;;;;;;-10.84;88.10;100226.94;4954837;28;20407;-79
2023/12/10 22:08:53;;;;;;;1.27;1.20;;;;;;;-10.85;88.08;100222.66;4977838;28;20069;-79
2023/12/10 22:11:20;;;;;;;1.40;1.30;;;;;;;-10.82;87.92;100225.09;4982119;28;20086;-79
2023/12/10 22:13:47;;;;;;;1.58;1.48;;;;;;;-10.86;87.97;100220.97;4981653;28;20059;-79
2023/12/10 22:16:14;;;;;;;1.60;1.50;;;;;;;-10.85;88.01;100214.84;4981777;28;20050;-80
2023/12/10 22:18:41;;;;;;;1.40;1.30;;;;;;;-10.84;87.80;100209.53;4983779;28;20043;-80
2023/12/10 22:21:15;;;;;;;1.40;1.30;;;;;;;-10.89;87.75;100214.13;4979246;28;20508;-79
2023/12/10 22:23:42;;;;;;;1.60;1.50;;;;;;;-10.85;87.91;100212.22;4958547;28;20058;-79
2023/12/10 22:26:12;;;;;;;1.10;1.10;;;;;;;-10.86;87.66;100221.81;4933307;28;20125;-79
2023/12/10 22:28:39;;;;;;;1.60;1.50;;;;;;;-10.81;87.90;100221.56;4966267;28;20054;-79
2023/12/10 22:31:08;;;;;;;1.70;1.60;;;;;;;-10.85;87.85;100194.81;4968471;28;20055;-81
2023/12/10 22:33:37;;;;;;;1.20;1.20;;;;;;;-10.88;87.74;100194.97;4961220;28;20089;-79
2023/12/10 22:36:09;;;;;;;1.40;1.30;;;;;;;-10.86;88.00;100207.91;4961417;28;20141;-76
2023/12/10 22:38:40;;;;;;;1.10;1.10;;;;;;;-10.83;88.08;100207.78;4970777;28;20050;-79
2023/12/10 22:41:11;;;;;;;1.50;1.40;;;;;;;-10.89;88.09;100208.06;4972135;28;20090;-79
2023/12/10 22:43:38;;;;;;;1.70;1.60;;;;;;;-10.89;88.18;100202.88;4970906;28;20453;-79
2023/12/10 22:46:05;;;;;;;1.40;1.30;;;;;;;-10.86;88.25;100198.34;4973975;28;20509;-79
2023/12/10 22:48:33;;;;;;;1.50;1.40;;;;;;;-10.92;88.22;100194.28;4973500;28;20050;-80
2023/12/10 22:51:00;;;;;;;1.60;1.50;;;;;;;-10.86;88.29;100189.66;4980320;28;20047;-79
2023/12/10 22:53:48;;;;;;;1.42;1.33;;;;;;;-10.91;88.19;100188.16;4978657;28;20055;-80
2023/12/10 22:56:28;;;;;;;1.42;1.33;;;;;;;-10.96;88.20;100186.69;4945001;28;20058;-80
2023/12/10 22:59:00;;;;;;;1.35;1.25;;;;;;;-10.91;88.24;100188.16;4963420;28;20059;-79
2023/12/10 23:01:27;;;;;;;1.33;1.25;;;;;;;-10.85;88.41;100173.94;4970975;28;20505;-79
2023/12/10 23:03:54;;;;;;;1.52;1.42;;;;;;;-10.84;88.53;100167.78;4973328;28;20093;-79
2023/12/10 23:06:21;;;;;;;1.40;1.30;;;;;;;-10.80;88.37;100174.53;4972539;28;20055;-79
2023/12/10 23:08:49;;;;;;;1.40;1.30;;;;;;;-10.77;88.45;100168.31;4970384;28;20563;-79
2023/12/10 23:11:16;;;;;;;1.40;1.30;;;;;;;-10.75;88.47;100167.31;4973308;28;20046;-79
2023/12/10 23:13:43;;;;;;;1.50;1.40;;;;;;;-10.74;88.16;100166.38;4971884;28;20055;-80
2023/12/10 23:16:15;;;;;;;1.33;1.23;;;;;;;-10.72;88.38;100161.94;4971207;28;20398;-79
2023/12/10 23:18:48;;;;;;;1.23;1.20;;;;;;;-10.69;88.35;100159.16;4971753;28;20524;-79
2023/12/10 23:22:03;;;;;;;1.25;1.23;;;;;;;-10.68;88.45;100165.25;4941190;28;20062;-79
2023/12/10 23:24:31;;;;;;;1.27;1.20;;;;;;;-10.70;88.10;100160.09;4923609;29;20074;-79
2023/12/10 23:27:06;;;;;;;1.45;1.35;;;;;;;-10.81;88.14;100161.56;4953578;29;20110;-80
2023/12/10 23:29:33;;;;;;;1.52;1.42;;;;;;;-10.79;88.56;100160.56;4953871;28;20065;-78
2023/12/10 23:32:01;;;;;;;1.40;1.30;;;;;;;-10.81;88.47;100153.75;4973023;28;20145;-79
2023/12/10 23:34:28;;;;;;;1.45;1.35;;;;;;;-10.88;88.39;100153.25;4971669;28;20161;-80
2023/12/10 23:36:55;;;;;;;1.15;1.15;;;;;;;-10.80;88.41;100156.28;4952923;28;20043;-79
2023/12/10 23:39:22;;;;;;;1.50;1.40;;;;;;;-10.74;88.46;100149.91;4971306;28;20057;-77
2023/12/10 23:41:52;;;;;;;1.10;1.10;;;;;;;-10.69;88.26;100153.09;4969907;28;20055;-78
2023/12/10 23:44:19;;;;;;;1.10;1.10;;;;;;;-10.70;87.97;100151.44;4973119;28;20057;-78
2023/12/10 23:46:46;;;;;;;1.50;1.40;;;;;;;-10.75;88.13;100143.84;4987864;28;20082;-79
2023/12/10 23:49:13;;;;;;;1.40;1.30;;;;;;;-10.75;88.06;100143.00;4972937;28;20074;-79
2023/12/10 23:51:43;;;;;;;1.40;1.30;;;;;;;-10.78;88.00;100148.41;4973300;28;20066;-79
2023/12/10 23:54:15;;;;;;;1.40;1.30;;;;;;;-10.74;88.00;100144.69;4973042;28;20081;-79
2023/12/10 23:56:42;;;;;;;1.50;1.40;;;;;;;-10.76;87.88;100146.53;4971764;28;20061;-79
2023/12/10 23:59:11;;;;;;;1.20;1.20;;;;;;;-10.79;88.01;100151.91;4972263;28;20092;-80
